METAR Data
IDs: Format: Raw Decoded Include TAF

Data at: 1103 UTC 18 Jan 2022

KMYP 181055Z AUTO 27026KT 10SM CLR M07/M23 A3012 RMK AO2
KMYP 181028Z AUTO 27028KT 10SM SCT120 M07/M23 A3012 RMK AO2
KMYP 181015Z AUTO 26028KT 10SM SCT120 M07/M23 A3012 RMK AO2
KMYP 181004Z AUTO 27031KT 10SM BKN120 M07/M23 A3012 RMK AO2
KMYP 180915Z AUTO 27031KT 10SM BKN120 M07/M22 A3012 RMK AO2
KMYP 180855Z AUTO 27031G34KT 10SM BKN120 M07/M22 A3013 RMK AO2
KMYP 180843Z AUTO 26029KT 10SM BKN120 M07/M22 A3012 RMK AO2
KMYP 180650Z AUTO 25026KT 10SM BKN120 M06/M23 A3016 RMK AO2
KMYP 180635Z AUTO 25024KT 10SM BKN120 M06/M22 A3017 RMK AO2
KMYP 180529Z AUTO 26025KT 10SM OVC110 M07/M20 A3017 RMK AO2
KMYP 180515Z AUTO 25025KT 10SM BKN110 M07/M21 A3018 RMK AO2
KMYP 180457Z AUTO 25027KT 10SM SCT120 M06/M21 A3018 RMK AO2
KMYP 180415Z AUTO 26024KT 10SM CLR M06/M20 A3020 RMK AO2
KMYP 180355Z AUTO 26020KT 10SM CLR M05/M20 A3020 RMK AO2
KMYP 180335Z AUTO 27022KT 10SM CLR M05/M19 A3020 RMK AO2
KMYP 180315Z AUTO 30014KT 10SM CLR M05/M18 A3022 RMK AO2
KMYP 180255Z AUTO 29024KT 10SM CLR M05/M19 A3021 RMK AO2
KMYP 180235Z AUTO 28027KT 10SM CLR M05/M20 A3021 RMK AO2
KMYP 180215Z AUTO 27025KT 10SM CLR M05/M21 A3021 RMK AO2
KMYP 180155Z AUTO 27024KT 10SM CLR M05/M21 A3021 RMK AO2
KMYP 180135Z AUTO 27027KT 10SM CLR M05/M21 A3021 RMK AO2
KMYP 180115Z AUTO 27031KT 10SM CLR M05/M22 A3020 RMK AO2
KMYP 180055Z AUTO 27032KT 10SM CLR M05/M23 A3020 RMK AO2
KMYP 180035Z AUTO 27030KT 10SM CLR M05/M21 A3021 RMK AO2
KMYP 180015Z AUTO 26027KT 10SM CLR M05/M20 A3021 RMK AO2
KMYP 172355Z AUTO 26025KT 10SM CLR M04/M20 A3022 RMK AO2
KMYP 172335Z AUTO 26024KT 10SM CLR M03/M20 A3022 RMK AO2
KMYP 172312Z AUTO 26024G28KT 10SM CLR M02/M18 A3022 RMK AO2
KMYP 172255Z AUTO 26023KT 10SM CLR M02/M18 A3023 RMK AO2
KMYP 172239Z AUTO 26025KT 10SM CLR M01/M18 A3023 RMK AO2
KMYP 172213Z AUTO 25023G30KT 10SM CLR M01/M20 A3022 RMK AO2
KMYP 172155Z AUTO 24021G26KT 10SM CLR M01/M20 A3023 RMK AO2
KMYP 172115Z AUTO 26024G31KT 10SM CLR M01/M21 A3023 RMK AO2
KMYP 172055Z AUTO 26029KT 10SM CLR M02/M22 A3022 RMK AO2
KMYP 172035Z AUTO 27028G33KT 10SM CLR M02/M22 A3022 RMK AO2
KMYP 172006Z AUTO 26028G31KT 10SM CLR M02/M23 A3023 RMK AO2
KMYP 171955Z AUTO 26023G26KT 10SM CLR M02/M23 A3026 RMK AO2
KMYP 171944Z AUTO 26025KT 10SM CLR M02/M24 A3027 RMK AO2
KMYP 171906Z AUTO 24024G31KT 10SM CLR M03/M23 A3027 RMK AO2
KMYP 171855Z AUTO 24021G28KT 10SM CLR M03/M24 A3028 RMK AO2
KMYP 171835Z AUTO 25023KT 10SM CLR M05/M25 A3029 RMK AO2
KMYP 171817Z AUTO 25024KT 10SM CLR M05/M25 A3030 RMK AO2
KMYP 171455Z AUTO 27030KT 10SM CLR M07/M21 A3028 RMK AO2
KMYP 171434Z AUTO 27027KT 10SM CLR M07/M21 A3028 RMK AO2
KMYP 171412Z AUTO 27027KT 10SM CLR M06/M20 A3028 RMK AO2
KMYP 171404Z AUTO 27026KT 10SM CLR M06/M18 A3028 RMK AO2
KMYP 171329Z AUTO 28032KT 10SM CLR M07/M19 A3027 RMK AO2
KMYP 171315Z AUTO 27031KT 10SM CLR M07/M20 A3027 RMK AO2
KMYP 171246Z AUTO 27031KT 10SM CLR M06/M17 A3027 RMK AO2
KMYP 171235Z AUTO 27030KT 10SM CLR M06/M17 A3027 RMK AO2
KMYP 171215Z AUTO 28030KT 10SM CLR M06/M15 A3028 RMK AO2
KMYP 171155Z AUTO 28028KT 10SM CLR M06/M16 A3029 RMK AO2
KMYP 171115Z AUTO 27026KT 10SM CLR M06/M20 A3029 RMK AO2
KMYP 171055Z AUTO 28030KT 10SM CLR M06/M17 A3029 RMK AO2
KMYP 171035Z AUTO 27031KT 10SM CLR M06/M18 A3028 RMK AO2
KMYP 171015Z AUTO 28032KT 10SM CLR M06/M17 A3029 RMK AO2
KMYP 170956Z AUTO 28034KT 10SM CLR M06/M18 A3029 RMK AO2
KMYP 170943Z AUTO 28035KT 10SM CLR M06/M18 A3029 RMK AO2
KMYP 170915Z AUTO 27035KT 10SM CLR M06/M21 A3029 RMK AO2
KMYP 170755Z AUTO 28034KT 10SM CLR M06/M23 A3032 RMK AO2
KMYP 170740Z AUTO 27030KT 10SM CLR M06/M23 A3032 RMK AO2
KMYP 170715Z AUTO 27031KT 10SM CLR M06/M23 A3033 RMK AO2
KMYP 170655Z AUTO 27029KT 10SM CLR M06/M23 A3033 RMK AO2
KMYP 170632Z AUTO 26027G31KT 10SM CLR M06/M23 A3034 RMK AO2
KMYP 170454Z AUTO 28020KT 10SM CLR M05/M23 A3038 RMK AO2
KMYP 170435Z AUTO 27019KT 10SM CLR M05/M25 A3038 RMK AO2
KMYP 170415Z AUTO 28020KT 10SM CLR M05/M23 A3038 RMK AO2
KMYP 170355Z AUTO 26019KT 10SM CLR M05/M23 A3038 RMK AO2
KMYP 170335Z AUTO 25018G21KT 10SM CLR M05/M23 A3038 RMK AO2
KMYP 170315Z AUTO 26014KT 10SM CLR M05/M23 A3038 RMK AO2
KMYP 170255Z AUTO 25015KT 10SM CLR M05/M23 A3038 RMK AO2
KMYP 170235Z AUTO 27014KT 10SM CLR M05/M23 A3038 RMK AO2
KMYP 170215Z AUTO 27016KT 10SM CLR M05/M23 A3038 RMK AO2
KMYP 170155Z AUTO 25013KT 10SM CLR M05/M23 A3039 RMK AO2
KMYP 170133Z AUTO 26014KT 10SM CLR M05/M23 A3038 RMK AO2
KMYP 170115Z AUTO 26014KT 10SM CLR M05/M23 A3038 RMK AO2
KMYP 170055Z AUTO 25015KT 10SM CLR M05/M23 A3038 RMK AO2
KMYP 170030Z AUTO 23011G20KT 10SM CLR M05/M23 A3036 RMK AO2
KMYP 170015Z AUTO 26019G24KT 10SM CLR M05/M23 A3036 RMK AO2
KMYP 162355Z AUTO 26020KT 10SM CLR M04/M22 A3037 RMK AO2
KMYP 162335Z AUTO 25014KT 10SM CLR M03/M22 A3036 RMK AO2
KMYP 162315Z AUTO 24010KT 10SM CLR M02/M21 A3037 RMK AO2